Time;durP1;ratioP1;P1;durP2;ratioP2;P2;SDS_P1;SDS_P2;PMS_P1;PMS_P2;Temp;Humidity;BMP_temperature;BMP_pressure;BME280_temperature;BME280_humidity;BME280_pressure;Samples;Min_cycle;Max_cycle;Signal;HPM_P1;HPM_P2
2023/01/21 00:00:43;;;;;;;48.78;23.10;;;-0.90;99.90;;;;;;5010617;28;20068;-68
2023/01/21 00:03:09;;;;;;;51.42;24.67;;;-0.40;99.90;;;;;;5013049;28;20565;-68
2023/01/21 00:05:34;;;;;;;54.35;24.70;;;-1.00;99.90;;;;;;5012054;28;20080;-68
2023/01/21 00:08:00;;;;;;;52.88;24.73;;;-1.00;99.90;;;;;;5012170;28;20053;-68
2023/01/21 00:10:26;;;;;;;57.75;26.00;;;-1.00;99.90;;;;;;5012579;28;20037;-68
2023/01/21 00:12:51;;;;;;;56.22;24.80;;;-1.00;99.90;;;;;;5012936;28;20045;-67
2023/01/21 00:15:17;;;;;;;52.33;24.13;;;-1.10;99.90;;;;;;5010975;28;20042;-67
2023/01/21 00:17:43;;;;;;;60.35;25.35;;;-1.10;99.90;;;;;;5013060;28;20407;-68
2023/01/21 00:20:10;;;;;;;60.20;24.42;;;-1.10;99.90;;;;;;5011773;28;20041;-67
2023/01/21 00:22:35;;;;;;;56.63;24.73;;;-1.10;99.90;;;;;;5012053;28;20038;-68
2023/01/21 00:25:01;;;;;;;54.28;25.02;;;-1.20;99.90;;;;;;5010634;28;20058;-67
2023/01/21 00:27:27;;;;;;;60.78;24.20;;;-1.30;99.90;;;;;;5012598;28;20125;-68
2023/01/21 00:29:53;;;;;;;61.20;26.13;;;-1.30;99.90;;;;;;5012949;28;20041;-68
2023/01/21 00:32:18;;;;;;;58.10;24.70;;;-1.30;99.90;;;;;;5012583;28;20046;-68
2023/01/21 00:34:44;;;;;;;63.53;25.95;;;-1.30;99.90;;;;;;5013458;28;20415;-68
2023/01/21 00:37:10;;;;;;;63.30;25.98;;;-1.40;99.90;;;;;;5012193;28;20403;-67
2023/01/21 00:39:36;;;;;;;60.72;26.27;;;-1.40;99.90;;;;;;5011886;28;20091;-67
2023/01/21 00:42:03;;;;;;;60.85;26.20;;;-1.40;99.90;;;;;;5012002;28;20053;-67
2023/01/21 00:44:29;;;;;;;59.35;25.40;;;-1.40;99.90;;;;;;5012486;28;20058;-67
2023/01/21 00:46:54;;;;;;;61.28;26.80;;;-1.40;99.90;;;;;;5013178;28;20034;-67
2023/01/21 00:49:20;;;;;;;64.10;26.42;;;-1.40;99.90;;;;;;5010129;28;20126;-68
2023/01/21 00:51:46;;;;;;;60.75;25.48;;;-1.50;99.90;;;;;;5011346;28;20046;-67
2023/01/21 00:54:11;;;;;;;50.97;24.35;;;-1.50;99.90;;;;;;5011757;28;20041;-68
2023/01/21 00:56:37;;;;;;;54.67;24.05;;;-1.50;99.90;;;;;;5010821;28;20073;-67
2023/01/21 00:59:02;;;;;;;57.60;25.77;;;-1.50;99.90;;;;;;5009872;28;20120;-67
2023/01/21 01:01:33;;;;;;;59.45;25.17;;;-1.50;99.90;;;;;;5009756;28;20042;-68
2023/01/21 01:03:58;;;;;;;55.33;25.02;;;-1.60;99.90;;;;;;5008087;28;20112;-68
2023/01/21 01:06:24;;;;;;;60.25;24.45;;;-1.60;99.90;;;;;;5010155;28;20546;-68
2023/01/21 01:08:50;;;;;;;63.78;26.88;;;-1.60;99.90;;;;;;5012313;28;20399;-67
2023/01/21 01:11:17;;;;;;;58.35;25.30;;;-1.60;99.90;;;;;;5011315;28;20163;-68
2023/01/21 01:13:43;;;;;;;70.70;26.75;;;-1.60;99.90;;;;;;5009721;28;20084;-68
2023/01/21 01:16:12;;;;;;;61.13;24.80;;;-1.60;99.90;;;;;;5010845;28;20387;-68
2023/01/21 01:18:38;;;;;;;65.97;26.88;;;-1.60;99.90;;;;;;5009123;28;20376;-68
2023/01/21 01:21:04;;;;;;;65.93;27.05;;;-1.60;99.90;;;;;;5007467;28;20046;-68
2023/01/21 01:23:30;;;;;;;66.13;27.85;;;-1.60;99.90;;;;;;5010337;28;20106;-68
2023/01/21 01:26:05;;;;;;;62.40;25.75;;;-1.60;99.90;;;;;;5007824;28;20418;-67
2023/01/21 01:28:32;;;;;;;67.57;26.92;;;-1.60;99.90;;;;;;5011197;28;20050;-67
2023/01/21 01:30:58;;;;;;;63.50;26.13;;;-1.60;99.90;;;;;;5009470;28;20050;-67
2023/01/21 01:33:24;;;;;;;69.65;27.23;;;-1.70;99.90;;;;;;5010823;28;20034;-67
2023/01/21 01:35:50;;;;;;;61.30;26.30;;;-1.70;99.90;;;;;;5010364;28;20046;-68
2023/01/21 01:38:21;;;;;;;72.45;29.52;;;-1.70;99.90;;;;;;5011187;28;20044;-68
2023/01/21 01:40:49;;;;;;;73.68;28.42;;;-1.70;99.90;;;;;;5010590;28;20046;-68
2023/01/21 01:43:24;;;;;;;73.80;29.20;;;-1.70;99.90;;;;;;5006691;28;20057;-68
2023/01/21 01:45:50;;;;;;;67.38;27.10;;;-1.70;99.90;;;;;;5004846;28;20092;-67
2023/01/21 01:48:27;;;;;;;69.68;27.83;;;-1.70;99.90;;;;;;5011145;28;20162;-67
2023/01/21 01:50:56;;;;;;;69.40;26.88;;;-1.70;99.90;;;;;;5010154;28;20053;-68
2023/01/21 01:53:25;;;;;;;66.88;27.05;;;-1.80;99.90;;;;;;5010934;28;20045;-67
2023/01/21 01:55:51;;;;;;;69.07;27.30;;;-1.80;99.90;;;;;;5010844;28;20403;-68
2023/01/21 01:58:19;;;;;;;70.82;28.45;;;-1.80;99.90;;;;;;5009702;28;20042;-68
2023/01/21 02:00:45;;;;;;;69.63;26.73;;;-1.80;99.90;;;;;;5006967;28;20399;-68
2023/01/21 02:05:56;;;;;;;72.97;28.52;;;-1.80;99.90;;;;;;5010860;28;20101;-68
2023/01/21 02:08:23;;;;;;;55.47;24.25;;;-1.70;99.90;;;;;;5009189;28;20129;-68
2023/01/21 02:10:48;;;;;;;73.75;28.40;;;-1.80;99.90;;;;;;5010330;28;20149;-67
2023/01/21 02:13:15;;;;;;;65.68;25.95;;;-1.80;99.90;;;;;;5015814;28;20165;-67
2023/01/21 02:16:07;;;;;;;65.50;25.88;;;-1.80;99.90;;;;;;5009273;28;20041;-67
2023/01/21 02:19:00;;;;;;;64.50;25.38;;;-1.80;99.90;;;;;;5009488;28;20084;-67
2023/01/21 02:21:45;;;;;;;63.05;26.20;;;-1.80;99.90;;;;;;5008862;28;20404;-67
2023/01/21 02:24:44;;;;;;;71.82;29.00;;;-1.60;99.90;;;;;;4980403;28;20046;-67
2023/01/21 02:27:45;;;;;;;73.22;27.92;;;-1.80;99.90;;;;;;4999578;28;20046;-67
2023/01/21 02:30:34;;;;;;;69.28;27.17;;;-1.80;99.90;;;;;;5005136;28;20491;-67
2023/01/21 02:33:14;;;;;;;71.28;27.48;;;-1.80;99.90;;;;;;4990636;28;20073;-67
2023/01/21 02:35:55;;;;;;;69.05;25.63;;;-1.90;99.90;;;;;;5007911;28;20046;-67
2023/01/21 02:38:30;;;;;;;67.90;28.10;;;-1.80;99.90;;;;;;5008974;28;20545;-67
2023/01/21 02:41:10;;;;;;;71.90;29.65;;;-1.60;99.90;;;;;;5010918;28;20499;-67
2023/01/21 02:43:59;;;;;;;66.07;26.33;;;-1.80;99.90;;;;;;5010323;28;20077;-67
2023/01/21 02:46:38;;;;;;;70.55;27.40;;;-1.90;99.90;;;;;;4989950;28;20046;-67
2023/01/21 02:49:10;;;;;;;74.78;27.15;;;-1.80;99.90;;;;;;5010823;28;20038;-68
2023/01/21 02:51:36;;;;;;;71.90;28.08;;;-1.90;99.90;;;;;;5008424;28;20161;-67
2023/01/21 02:54:39;;;;;;;72.22;28.27;;;-1.80;99.90;;;;;;5007759;28;20042;-68
2023/01/21 02:57:15;;;;;;;68.68;26.25;;;-1.90;99.90;;;;;;5000192;28;20108;-68
2023/01/21 02:59:45;;;;;;;72.07;26.60;;;-1.90;99.90;;;;;;5011498;28;20103;-68
2023/01/21 03:02:43;;;;;;;76.20;29.73;;;-1.90;99.90;;;;;;5008427;28;20104;-68
2023/01/21 03:05:36;;;;;;;70.10;28.10;;;-1.90;99.90;;;;;;5005041;28;20038;-68
2023/01/21 03:08:18;;;;;;;67.90;27.42;;;-1.90;99.90;;;;;;5011731;28;20065;-68
2023/01/21 03:11:05;;;;;;;83.40;28.77;;;-1.90;99.90;;;;;;5014547;28;20053;-68
2023/01/21 03:19:19;;;;;;;72.18;29.42;;;-1.90;99.90;;;;;;5011923;28;20050;-68
2023/01/21 03:21:47;;;;;;;80.10;29.17;;;-1.90;99.90;;;;;;5001775;28;20129;-68
2023/01/21 03:24:13;;;;;;;77.55;30.42;;;-1.90;99.90;;;;;;5013853;28;20033;-68
2023/01/21 03:26:44;;;;;;;84.00;31.85;;;-1.80;99.90;;;;;;5005899;28;20048;-68
2023/01/21 03:29:17;;;;;;;80.53;29.90;;;-1.80;99.90;;;;;;5012707;28;20041;-68
2023/01/21 03:31:46;;;;;;;81.82;30.42;;;-1.80;99.90;;;;;;5012404;28;20407;-68
2023/01/21 03:34:15;;;;;;;83.40;31.45;;;-1.70;99.90;;;;;;5012362;28;20104;-68
2023/01/21 03:36:56;;;;;;;79.93;31.20;;;-1.70;99.90;;;;;;5011650;28;20046;-68
2023/01/21 03:39:37;;;;;;;83.85;30.48;;;-1.60;99.90;;;;;;5012149;28;20038;-68
2023/01/21 03:42:03;;;;;;;80.28;30.33;;;-1.60;99.90;;;;;;5013798;28;20037;-68
2023/01/21 03:44:29;;;;;;;77.45;31.02;;;-1.60;99.90;;;;;;5005818;28;20069;-68
2023/01/21 03:47:00;;;;;;;77.45;31.48;;;-1.50;99.90;;;;;;5010457;28;20042;-68
2023/01/21 03:49:42;;;;;;;85.15;32.80;;;-1.50;99.90;;;;;;5004511;28;20402;-68
2023/01/21 03:52:11;;;;;;;86.32;32.33;;;-1.40;99.90;;;;;;5011245;28;20352;-68
2023/01/21 03:54:37;;;;;;;81.05;31.95;;;-1.30;99.90;;;;;;5012902;28;20399;-68
2023/01/21 03:57:03;;;;;;;81.95;32.67;;;-1.30;99.90;;;;;;5011733;28;20034;-67
2023/01/21 03:59:29;;;;;;;84.63;33.13;;;-1.20;99.90;;;;;;5012613;28;20420;-67
2023/01/21 04:01:54;;;;;;;79.10;32.53;;;-1.10;99.90;;;;;;5010672;28;20064;-68
2023/01/21 04:04:20;;;;;;;79.60;32.88;;;-1.10;99.90;;;;;;5010103;28;20038;-67
2023/01/21 04:06:45;;;;;;;77.85;31.90;;;-1.00;99.90;;;;;;5012312;28;20068;-68
2023/01/21 04:09:11;;;;;;;80.85;33.00;;;-1.00;99.90;;;;;;5010266;28;20065;-68
2023/01/21 04:11:37;;;;;;;78.75;32.10;;;-0.90;99.90;;;;;;5009880;28;20121;-68
2023/01/21 04:14:02;;;;;;;80.13;32.55;;;-0.90;99.90;;;;;;5008119;28;20069;-68
2023/01/21 04:16:29;;;;;;;71.60;32.03;;;-0.90;99.90;;;;;;5026537;28;20037;-68
2023/01/21 04:18:54;;;;;;;73.88;31.67;;;-0.80;99.90;;;;;;5012216;28;20048;-68
2023/01/21 04:21:20;;;;;;;73.85;30.95;;;-0.80;99.90;;;;;;5010636;28;20038;-68
2023/01/21 04:23:46;;;;;;;77.03;31.67;;;-0.80;99.90;;;;;;4999468;28;20038;-68
2023/01/21 04:26:11;;;;;;;83.88;31.85;;;-0.80;99.90;;;;;;5008083;28;20069;-66
2023/01/21 04:28:37;;;;;;;67.13;29.80;;;-0.70;99.90;;;;;;5009868;28;20449;-67
2023/01/21 04:31:02;;;;;;;70.10;29.25;;;-0.70;99.90;;;;;;5012431;28;20048;-67
2023/01/21 04:33:29;;;;;;;72.88;30.20;;;-0.70;99.90;;;;;;5010384;28;20048;-67
2023/01/21 04:35:59;;;;;;;71.13;29.75;;;-0.70;99.90;;;;;;5006568;28;20042;-67
2023/01/21 04:38:24;;;;;;;73.35;30.63;;;-0.70;99.90;;;;;;5008375;28;20128;-67
2023/01/21 04:40:50;;;;;;;76.78;30.30;;;-0.60;99.90;;;;;;5002236;28;20145;-67
2023/01/21 04:43:16;;;;;;;75.53;30.50;;;-0.70;99.90;;;;;;5007997;28;20455;-68
2023/01/21 04:45:41;;;;;;;79.53;29.88;;;-0.70;99.90;;;;;;5010195;28;20046;-67
2023/01/21 04:48:07;;;;;;;69.03;29.17;;;-0.60;99.90;;;;;;5005512;28;20042;-67
2023/01/21 04:50:32;;;;;;;68.38;28.95;;;-0.60;99.90;;;;;;5006006;28;20084;-67
2023/01/21 04:52:58;;;;;;;68.28;30.17;;;-0.60;99.90;;;;;;5010141;28;20124;-67
2023/01/21 04:55:23;;;;;;;66.00;28.30;;;-0.70;99.90;;;;;;5009083;28;20048;-67
2023/01/21 04:57:49;;;;;;;71.72;30.67;;;-0.70;99.90;;;;;;5010346;28;20042;-67
2023/01/21 05:00:15;;;;;;;78.82;30.63;;;-0.70;99.90;;;;;;5010684;28;20108;-67
2023/01/21 05:02:41;;;;;;;76.70;32.10;;;-0.60;99.90;;;;;;5010410;28;20466;-67
2023/01/21 05:05:07;;;;;;;70.90;30.73;;;-0.60;99.90;;;;;;5012365;28;20054;-67
2023/01/21 05:07:33;;;;;;;72.80;31.52;;;-0.60;99.90;;;;;;5010467;28;20089;-68
2023/01/21 05:09:58;;;;;;;76.68;31.67;;;-0.60;99.90;;;;;;5005296;28;20394;-68
2023/01/21 05:12:24;;;;;;;65.82;29.45;;;-0.50;99.90;;;;;;5012082;28;20427;-67
2023/01/21 05:14:53;;;;;;;69.85;29.50;;;-0.50;99.90;;;;;;5010957;28;20042;-68
2023/01/21 05:17:19;;;;;;;70.80;31.15;;;-0.50;99.90;;;;;;5011649;28;20056;-67
2023/01/21 05:19:45;;;;;;;69.63;29.33;;;-0.50;99.90;;;;;;5007635;28;20046;-67
2023/01/21 05:22:11;;;;;;;65.57;28.77;;;-0.60;99.90;;;;;;5005988;28;20042;-68
2023/01/21 05:24:37;;;;;;;65.47;29.33;;;-0.60;99.90;;;;;;5008519;28;20065;-68
2023/01/21 05:27:02;;;;;;;61.67;27.83;;;-0.60;99.90;;;;;;5007029;28;20041;-68
2023/01/21 05:29:28;;;;;;;66.85;29.52;;;-0.60;99.90;;;;;;5007702;28;20034;-68
2023/01/21 05:31:53;;;;;;;62.75;27.27;;;-0.60;99.90;;;;;;5010268;28;20503;-68
2023/01/21 05:34:19;;;;;;;71.30;28.88;;;-0.70;99.90;;;;;;5009290;28;20041;-67
2023/01/21 05:36:45;;;;;;;64.15;28.52;;;-0.80;99.90;;;;;;5010412;28;20100;-66
2023/01/21 05:39:10;;;;;;;62.00;28.60;;;-0.80;99.90;;;;;;5010260;28;20144;-67
2023/01/21 05:41:36;;;;;;;64.63;26.80;;;-0.90;99.90;;;;;;5011353;28;20406;-67
2023/01/21 05:44:01;;;;;;;65.88;28.77;;;-0.90;99.90;;;;;;5007000;28;20034;-66
2023/01/21 05:46:27;;;;;;;72.35;29.02;;;-0.90;99.90;;;;;;5005498;28;20038;-67
2023/01/21 05:48:53;;;;;;;64.28;28.60;;;-1.00;99.90;;;;;;5000951;28;20096;-67
2023/01/21 05:51:18;;;;;;;63.83;28.42;;;-0.90;99.90;;;;;;5007526;28;20157;-67
2023/01/21 05:53:45;;;;;;;71.60;29.92;;;-1.00;99.90;;;;;;5005082;28;20062;-67
2023/01/21 05:56:10;;;;;;;74.25;30.73;;;-1.00;99.90;;;;;;5009389;28;20049;-67
2023/01/21 05:58:36;;;;;;;74.03;30.52;;;-1.10;99.90;;;;;;5010727;28;20042;-67
2023/01/21 06:01:02;;;;;;;75.32;31.00;;;-1.10;99.90;;;;;;5010199;28;20125;-67
2023/01/21 06:03:27;;;;;;;75.68;29.95;;;-1.10;99.90;;;;;;5011233;28;20038;-67
2023/01/21 06:05:53;;;;;;;67.40;29.60;;;-1.20;99.90;;;;;;5010205;28;20459;-67
2023/01/21 06:08:19;;;;;;;75.75;30.27;;;-1.20;99.90;;;;;;5010807;28;20093;-67
2023/01/21 06:10:44;;;;;;;69.28;29.80;;;-1.00;99.90;;;;;;5010070;28;20045;-67
2023/01/21 06:13:12;;;;;;;73.68;28.45;;;-1.30;99.90;;;;;;5009849;28;20079;-67
2023/01/21 06:15:37;;;;;;;75.82;29.95;;;-1.10;99.90;;;;;;5007968;28;20460;-67
2023/01/21 06:18:03;;;;;;;70.82;29.42;;;-1.40;99.90;;;;;;5008749;28;20121;-67
2023/01/21 06:20:30;;;;;;;70.38;29.23;;;-1.40;99.90;;;;;;5010994;28;20169;-67
2023/01/21 06:22:57;;;;;;;77.22;29.33;;;-1.50;99.90;;;;;;4995721;28;20053;-67
2023/01/21 06:25:24;;;;;;;77.22;31.00;;;-1.50;99.90;;;;;;5010553;28;20038;-67
2023/01/21 06:27:49;;;;;;;80.28;30.65;;;-1.50;99.90;;;;;;5009861;28;20454;-67
2023/01/21 06:30:15;;;;;;;82.03;30.60;;;-1.50;99.90;;;;;;5008172;28;20042;-67
2023/01/21 06:32:41;;;;;;;72.05;30.05;;;-1.50;99.90;;;;;;5011698;28;20117;-67
2023/01/21 06:35:07;;;;;;;75.07;30.33;;;-1.60;99.90;;;;;;5009447;28;20053;-67
2023/01/21 06:37:32;;;;;;;71.55;29.98;;;-1.60;99.90;;;;;;5007647;28;20041;-67
2023/01/21 06:39:58;;;;;;;68.18;28.55;;;-1.60;99.90;;;;;;5028489;28;20073;-67
2023/01/21 06:42:23;;;;;;;79.38;31.50;;;-1.60;99.90;;;;;;5015511;28;20057;-68
2023/01/21 06:44:49;;;;;;;76.35;30.15;;;-1.60;99.90;;;;;;5015184;28;20186;-67
2023/01/21 06:47:15;;;;;;;71.13;30.60;;;-1.60;99.90;;;;;;5012792;28;20042;-67
2023/01/21 06:49:41;;;;;;;78.13;30.00;;;-1.60;99.90;;;;;;5014382;28;20074;-67
2023/01/21 06:52:07;;;;;;;88.40;31.63;;;-1.70;99.90;;;;;;5011772;28;20050;-67
2023/01/21 06:54:33;;;;;;;73.30;29.15;;;-1.60;99.90;;;;;;5013160;28;20130;-67
2023/01/21 06:56:59;;;;;;;78.13;31.17;;;-1.60;99.90;;;;;;5011789;28;20048;-67
2023/01/21 06:59:24;;;;;;;82.97;31.70;;;-1.60;99.90;;;;;;5015439;28;20072;-67
2023/01/21 07:01:50;;;;;;;85.40;32.70;;;-1.50;99.90;;;;;;5012083;28;20038;-67
2023/01/21 07:04:16;;;;;;;85.82;33.83;;;-1.50;99.90;;;;;;5012522;28;20042;-69
2023/01/21 07:06:41;;;;;;;77.57;33.22;;;-1.60;99.90;;;;;;5012979;28;20375;-67
2023/01/21 07:09:07;;;;;;;91.63;34.45;;;-1.60;99.90;;;;;;5011191;28;20076;-67
2023/01/21 07:11:33;;;;;;;81.70;33.05;;;-1.50;99.90;;;;;;5013271;28;20046;-67
2023/01/21 07:13:59;;;;;;;82.93;31.85;;;-1.50;99.90;;;;;;5010439;28;20048;-68
2023/01/21 07:16:25;;;;;;;85.78;33.97;;;-1.50;99.90;;;;;;5009574;28;20399;-67
2023/01/21 07:18:51;;;;;;;81.82;31.30;;;-1.50;99.90;;;;;;4995129;28;20565;-67
2023/01/21 07:21:17;;;;;;;78.43;31.98;;;-1.40;99.90;;;;;;5010475;28;20034;-68
2023/01/21 07:23:43;;;;;;;82.85;33.53;;;-1.40;99.90;;;;;;5013102;28;20046;-68
2023/01/21 07:26:09;;;;;;;83.38;32.85;;;-1.50;99.90;;;;;;5010343;28;20045;-68
2023/01/21 07:28:35;;;;;;;82.32;33.08;;;-1.50;99.90;;;;;;5010136;28;20414;-68
2023/01/21 07:31:02;;;;;;;75.30;31.63;;;-1.60;99.90;;;;;;5007101;28;20049;-68
2023/01/21 07:33:28;;;;;;;86.88;33.15;;;-1.60;99.90;;;;;;5008376;28;20042;-69
2023/01/21 07:35:54;;;;;;;93.93;34.50;;;-1.60;99.90;;;;;;5014701;28;20041;-68
2023/01/21 07:38:20;;;;;;;85.70;33.03;;;-1.60;99.90;;;;;;5010779;28;20061;-68
2023/01/21 07:40:49;;;;;;;86.85;34.17;;;-1.70;99.90;;;;;;5012734;28;20499;-67
2023/01/21 07:43:15;;;;;;;77.43;31.90;;;-1.70;99.90;;;;;;5010026;28;20057;-68
2023/01/21 07:45:41;;;;;;;90.22;33.53;;;-1.70;99.90;;;;;;5012493;28;20041;-68
2023/01/21 07:48:07;;;;;;;84.95;32.85;;;-1.70;99.90;;;;;;5013397;28;20514;-68
2023/01/21 07:50:33;;;;;;;83.80;30.70;;;-1.70;99.90;;;;;;5009189;28;20189;-67
2023/01/21 07:52:59;;;;;;;83.78;32.55;;;-1.70;99.90;;;;;;4993726;28;20042;-67
2023/01/21 07:55:25;;;;;;;82.22;33.00;;;-1.70;99.90;;;;;;5005329;28;20042;-68
2023/01/21 07:57:51;;;;;;;80.55;30.75;;;-1.80;99.90;;;;;;5008055;28;20372;-68
2023/01/21 08:00:17;;;;;;;76.07;30.05;;;-1.70;99.90;;;;;;5010544;28;20037;-68
2023/01/21 08:02:43;;;;;;;77.40;30.15;;;-1.70;99.90;;;;;;5009778;28;20469;-68
2023/01/21 08:05:09;;;;;;;86.15;32.40;;;-1.70;99.90;;;;;;5010381;28;20042;-68
2023/01/21 08:07:35;;;;;;;80.43;31.83;;;-1.70;99.90;;;;;;5008628;28;20096;-68
2023/01/21 08:10:00;;;;;;;81.65;32.30;;;-1.60;99.90;;;;;;5009415;28;20069;-68
2023/01/21 08:12:26;;;;;;;85.00;31.52;;;-1.60;99.90;;;;;;5011283;28;20049;-69
2023/01/21 08:14:52;;;;;;;77.15;31.27;;;-1.60;99.90;;;;;;5010977;28;20042;-68
2023/01/21 08:17:17;;;;;;;76.40;31.13;;;-1.60;99.90;;;;;;5009750;28;20122;-68
2023/01/21 08:19:43;;;;;;;82.35;33.00;;;-1.50;99.90;;;;;;5011349;28;20081;-67
2023/01/21 08:22:08;;;;;;;79.95;32.75;;;-1.50;99.90;;;;;;5012575;28;20120;-69
2023/01/21 08:24:34;;;;;;;79.70;31.58;;;-1.50;99.90;;;;;;5011045;28;20042;-68
2023/01/21 08:27:00;;;;;;;85.20;32.10;;;-1.50;99.90;;;;;;5011204;28;20116;-67
2023/01/21 08:29:26;;;;;;;77.07;31.55;;;-1.60;99.90;;;;;;5006866;28;20436;-67
2023/01/21 08:31:52;;;;;;;75.70;32.88;;;-1.50;99.90;;;;;;5010401;28;20499;-67
2023/01/21 08:34:18;;;;;;;92.93;33.80;;;-1.40;99.90;;;;;;5009334;28;20116;-67
2023/01/21 08:36:44;;;;;;;86.97;32.97;;;-1.40;99.90;;;;;;5008517;28;20042;-67
2023/01/21 08:39:12;;;;;;;83.75;32.53;;;-1.30;99.90;;;;;;5009707;28;20050;-67
2023/01/21 08:41:39;;;;;;;80.35;32.42;;;-1.20;99.90;;;;;;5005182;28;20050;-67
2023/01/21 08:44:06;;;;;;;79.50;32.55;;;-1.10;99.90;;;;;;5010998;28;20120;-67
2023/01/21 08:46:32;;;;;;;81.13;34.22;;;-1.10;99.90;;;;;;5010776;28;20426;-67
2023/01/21 08:48:57;;;;;;;86.35;32.75;;;-1.10;99.90;;;;;;5011168;28;20038;-68
2023/01/21 08:51:23;;;;;;;85.72;32.90;;;-1.00;99.90;;;;;;5010291;28;20056;-68
2023/01/21 08:53:50;;;;;;;84.82;31.92;;;-0.90;99.90;;;;;;5012309;28;20041;-67
2023/01/21 08:56:16;;;;;;;82.55;32.50;;;-0.90;99.90;;;;;;5011337;28;20124;-68
2023/01/21 08:58:42;;;;;;;89.82;33.70;;;-0.90;99.90;;;;;;5010824;28;20690;-68
2023/01/21 09:01:14;;;;;;;74.90;31.67;;;-0.80;99.90;;;;;;5011908;28;20041;-69
2023/01/21 09:03:40;;;;;;;86.15;33.28;;;-0.70;99.90;;;;;;5010761;28;20038;-67
2023/01/21 09:06:07;;;;;;;88.15;31.67;;;-0.60;99.90;;;;;;5010218;28;20037;-68
2023/01/21 09:08:32;;;;;;;71.93;31.42;;;-0.50;99.90;;;;;;5008543;28;20089;-67
2023/01/21 09:10:59;;;;;;;71.90;28.90;;;-0.50;99.90;;;;;;5011574;28;20046;-68
2023/01/21 09:13:27;;;;;;;83.97;33.15;;;-0.40;99.90;;;;;;5012817;28;20034;-67
2023/01/21 09:15:52;;;;;;;71.15;30.30;;;-0.40;99.90;;;;;;5005567;28;20593;-68
2023/01/21 09:18:18;;;;;;;73.05;28.73;;;-0.40;99.90;;;;;;5010989;28;20037;-67
2023/01/21 09:20:44;;;;;;;77.35;29.50;;;-0.40;99.90;;;;;;5011908;28;20069;-68
2023/01/21 09:23:24;;;;;;;74.97;28.58;;;-0.50;99.90;;;;;;5009959;28;20037;-67
2023/01/21 09:26:04;;;;;;;68.25;28.90;;;-0.50;99.90;;;;;;5008318;28;20038;-67
2023/01/21 09:28:35;;;;;;;74.97;29.25;;;-0.50;99.90;;;;;;5010672;28;20083;-67
2023/01/21 09:31:05;;;;;;;69.25;28.58;;;-0.50;99.90;;;;;;5010172;28;20467;-69
2023/01/21 09:33:32;;;;;;;76.53;30.27;;;-0.50;99.90;;;;;;5010834;28;20042;-68
2023/01/21 09:36:00;;;;;;;73.63;28.70;;;-0.50;99.90;;;;;;5012763;28;20095;-68
2023/01/21 09:38:26;;;;;;;70.13;28.92;;;-0.50;99.90;;;;;;5003465;28;20046;-67
2023/01/21 09:40:53;;;;;;;69.18;28.92;;;-0.40;99.90;;;;;;5011052;28;20054;-67
2023/01/21 09:43:33;;;;;;;71.03;29.38;;;-0.20;99.90;;;;;;5011465;28;20079;-67
2023/01/21 09:46:02;;;;;;;66.78;28.27;;;-0.10;99.90;;;;;;5009449;28;20038;-67
2023/01/21 09:48:33;;;;;;;63.05;28.20;;;0.00;99.90;;;;;;5006122;28;20135;-68
2023/01/21 09:51:04;;;;;;;57.38;27.55;;;0.20;99.90;;;;;;5007100;28;20046;-68
2023/01/21 09:53:46;;;;;;;43.67;22.88;;;0.70;99.90;;;;;;5011076;28;20403;-67
2023/01/21 09:56:34;;;;;;;48.17;22.75;;;1.20;99.90;;;;;;5009751;28;20113;-69
2023/01/21 09:59:16;;;;;;;40.22;20.42;;;1.70;99.90;;;;;;5012663;28;20060;-68
2023/01/21 10:01:42;;;;;;;43.08;18.92;;;2.00;99.90;;;;;;5009089;28;20115;-67
2023/01/21 10:04:44;;;;;;;40.17;21.05;;;2.20;99.90;;;;;;5010597;28;20122;-68
2023/01/21 10:07:26;;;;;;;39.42;19.77;;;2.30;99.90;;;;;;5007670;28;20137;-67
2023/01/21 10:10:17;;;;;;;38.72;20.75;;;2.50;99.90;;;;;;5009053;28;20391;-69
2023/01/21 10:13:08;;;;;;;40.13;21.40;;;2.80;99.90;;;;;;5006138;28;20038;-67
2023/01/21 10:15:50;;;;;;;35.25;18.75;;;3.20;99.90;;;;;;5011732;28;20549;-68
2023/01/21 10:18:26;;;;;;;38.25;20.15;;;3.50;99.90;;;;;;5006301;28;20064;-68
2023/01/21 10:21:04;;;;;;;32.70;18.77;;;3.90;99.90;;;;;;5014818;28;20185;-68
2023/01/21 10:23:41;;;;;;;33.28;17.75;;;4.30;99.90;;;;;;5014757;28;20041;-68
2023/01/21 10:26:11;;;;;;;30.90;17.52;;;4.50;99.90;;;;;;5014196;28;20061;-68
2023/01/21 10:28:43;;;;;;;30.13;17.92;;;4.80;99.90;;;;;;5011938;28;20088;-68
2023/01/21 10:31:29;;;;;;;32.67;18.67;;;5.20;99.90;;;;;;5012748;28;20499;-68
2023/01/21 10:33:55;;;;;;;30.05;18.60;;;5.10;99.90;;;;;;5011610;28;20479;-68
2023/01/21 10:36:39;;;;;;;30.85;19.13;;;4.60;99.90;;;;;;5014642;28;20040;-68
2023/01/21 10:39:21;;;;;;;29.98;18.40;;;4.20;99.90;;;;;;5009397;28;20427;-68
2023/01/21 10:42:05;;;;;;;30.58;17.67;;;3.50;99.90;;;;;;5009280;28;20096;-68
2023/01/21 10:44:56;;;;;;;32.10;18.23;;;3.10;99.90;;;;;;5002262;28;20364;-68
2023/01/21 10:47:41;;;;;;;31.77;16.88;;;2.90;99.90;;;;;;5011190;28;20131;-68
2023/01/21 10:50:28;;;;;;;31.45;17.67;;;2.80;99.90;;;;;;5011969;28;20046;-68
2023/01/21 10:53:09;;;;;;;29.50;16.50;;;2.60;99.90;;;;;;5011490;28;20050;-67
2023/01/21 10:55:58;;;;;;;27.50;15.35;;;2.50;99.90;;;;;;5008581;28;20065;-68
2023/01/21 10:58:35;;;;;;;25.85;16.10;;;2.40;99.90;;;;;;5014860;28;20049;-68
2023/01/21 11:01:05;;;;;;;29.98;16.17;;;2.30;99.90;;;;;;5013811;28;20104;-68
2023/01/21 11:03:40;;;;;;;32.60;16.90;;;2.30;99.90;;;;;;5014706;28;20048;-68
2023/01/21 11:06:09;;;;;;;28.50;16.23;;;2.20;99.90;;;;;;5013460;28;20488;-68
2023/01/21 11:08:37;;;;;;;26.92;15.90;;;2.20;99.90;;;;;;5012448;28;20509;-68
2023/01/21 11:11:05;;;;;;;29.23;17.10;;;2.20;99.90;;;;;;5010364;28;20044;-68
2023/01/21 11:13:30;;;;;;;27.52;16.33;;;2.10;99.90;;;;;;5006816;28;20506;-68
2023/01/21 11:15:58;;;;;;;28.00;16.88;;;2.10;99.90;;;;;;5006508;28;20049;-68
2023/01/21 11:18:33;;;;;;;28.65;17.00;;;2.10;99.90;;;;;;5009712;28;20040;-68
2023/01/21 11:21:01;;;;;;;28.00;16.58;;;2.10;99.90;;;;;;5006221;28;20100;-68
2023/01/21 11:23:30;;;;;;;29.02;16.33;;;2.10;99.90;;;;;;5010230;28;20034;-68
2023/01/21 11:26:13;;;;;;;24.48;14.93;;;2.10;99.90;;;;;;5009733;28;20083;-68
2023/01/21 11:28:39;;;;;;;26.60;15.20;;;2.10;99.90;;;;;;5013273;28;20046;-68
2023/01/21 11:31:18;;;;;;;24.05;14.65;;;2.10;99.90;;;;;;5008082;28;20049;-68
2023/01/21 11:33:45;;;;;;;24.00;14.18;;;2.10;99.90;;;;;;5008650;28;20038;-68
2023/01/21 11:36:16;;;;;;;21.23;12.75;;;2.10;99.90;;;;;;5013128;28;20038;-68
2023/01/21 11:38:42;;;;;;;28.35;12.63;;;2.20;99.90;;;;;;5011364;28;20050;-68
2023/01/21 11:41:11;;;;;;;22.08;12.98;;;2.20;99.90;;;;;;5010397;28;20045;-68
2023/01/21 11:43:49;;;;;;;24.80;13.43;;;2.30;99.90;;;;;;5009043;28;20749;-68
2023/01/21 11:46:25;;;;;;;19.95;11.75;;;2.30;99.90;;;;;;5009062;28;20037;-68
2023/01/21 11:49:16;;;;;;;22.48;11.50;;;2.40;99.90;;;;;;5006019;28;20037;-68
2023/01/21 11:51:44;;;;;;;18.90;11.73;;;2.40;99.90;;;;;;5005013;28;20058;-67
2023/01/21 11:54:18;;;;;;;19.73;12.52;;;2.50;99.90;;;;;;5013220;28;20088;-67
2023/01/21 11:56:56;;;;;;;20.98;12.00;;;2.50;99.90;;;;;;5013298;28;20092;-67
2023/01/21 11:59:22;;;;;;;18.98;12.23;;;2.50;99.90;;;;;;5007887;28;20141;-67
2023/01/21 12:01:55;;;;;;;17.80;11.25;;;2.50;99.90;;;;;;5009833;28;20132;-68
2023/01/21 12:04:21;;;;;;;20.63;10.80;;;2.50;99.90;;;;;;5008115;28;20399;-67
2023/01/21 12:06:50;;;;;;;17.25;9.80;;;2.60;99.90;;;;;;4968433;28;1083545;-68
2023/01/21 12:09:19;;;;;;;16.70;10.40;;;2.60;99.90;;;;;;5005253;28;20127;-68
2023/01/21 12:12:04;;;;;;;16.85;9.55;;;2.60;99.90;;;;;;5003998;28;20041;-67
2023/01/21 12:14:41;;;;;;;13.85;8.75;;;2.60;99.90;;;;;;5003901;28;20049;-68
2023/01/21 12:17:35;;;;;;;11.55;7.55;;;2.60;99.90;;;;;;5005793;28;20119;-67
2023/01/21 12:20:20;;;;;;;14.20;8.43;;;2.60;99.90;;;;;;4992128;28;20050;-68
2023/01/21 12:22:54;;;;;;;11.07;7.18;;;2.60;99.90;;;;;;5005683;28;20069;-68
2023/01/21 12:25:37;;;;;;;11.43;6.82;;;2.60;99.90;;;;;;5011147;28;20050;-66
2023/01/21 12:28:24;;;;;;;14.38;7.43;;;2.70;99.90;;;;;;5008229;28;20062;-67
2023/01/21 12:31:05;;;;;;;12.38;7.72;;;2.70;99.90;;;;;;5012704;28;20414;-67
2023/01/21 12:33:30;;;;;;;12.20;7.63;;;2.70;99.90;;;;;;5012473;28;20364;-67
2023/01/21 12:36:08;;;;;;;8.60;5.97;;;2.70;99.90;;;;;;5010162;28;20056;-67
2023/01/21 12:39:23;;;;;;;8.00;5.45;;;2.70;99.90;;;;;;5010642;28;20073;-66
2023/01/21 12:42:11;;;;;;;7.82;5.20;;;2.80;99.90;;;;;;5008654;28;20042;-67
2023/01/21 12:45:01;;;;;;;9.73;6.28;;;2.90;99.90;;;;;;5011887;28;20125;-67
2023/01/21 12:47:31;;;;;;;7.57;4.45;;;2.90;99.90;;;;;;5009108;28;20049;-67
2023/01/21 12:50:03;;;;;;;9.68;5.65;;;2.90;99.90;;;;;;5013127;28;20049;-67
2023/01/21 12:52:38;;;;;;;8.95;5.18;;;2.90;99.90;;;;;;5012825;28;20050;-66
2023/01/21 12:55:17;;;;;;;10.05;6.45;;;2.90;99.90;;;;;;5013296;28;20180;-66